sensor_id;sensor_type;location;lat;lon;timestamp;P1;durP1;ratioP1;P2;durP2;ratioP2
72688;SDS011;61053;52.166;4.506;2023-11-19T00:32:01;15.05;;;4.15;;
72688;SDS011;61053;52.166;4.506;2023-11-19T00:43:48;25.50;;;4.00;;
72688;SDS011;61053;52.166;4.506;2023-11-19T00:48:42;17.63;;;3.88;;
72688;SDS011;61053;52.166;4.506;2023-11-19T01:01:05;14.48;;;4.05;;
72688;SDS011;61053;52.166;4.506;2023-11-19T01:03:31;23.95;;;4.28;;
72688;SDS011;61053;52.166;4.506;2023-11-19T01:05:58;20.88;;;4.60;;
72688;SDS011;61053;52.166;4.506;2023-11-19T01:13:22;19.30;;;4.15;;
72688;SDS011;61053;52.166;4.506;2023-11-19T01:15:51;17.85;;;3.92;;
72688;SDS011;61053;52.166;4.506;2023-11-19T01:25:48;21.15;;;4.38;;
72688;SDS011;61053;52.166;4.506;2023-11-19T01:34:14;22.10;;;3.28;;
72688;SDS011;61053;52.166;4.506;2023-11-19T01:39:23;16.38;;;3.72;;
72688;SDS011;61053;52.166;4.506;2023-11-19T01:44:18;19.50;;;4.40;;
72688;SDS011;61053;52.166;4.506;2023-11-19T01:46:47;23.88;;;4.78;;
72688;SDS011;61053;52.166;4.506;2023-11-19T01:54:24;20.05;;;4.28;;
72688;SDS011;61053;52.166;4.506;2023-11-19T01:57:02;26.67;;;4.35;;
72688;SDS011;61053;52.166;4.506;2023-11-19T01:59:32;24.35;;;4.63;;
72688;SDS011;61053;52.166;4.506;2023-11-19T02:02:06;26.20;;;4.80;;
72688;SDS011;61053;52.166;4.506;2023-11-19T02:04:40;20.42;;;4.53;;
72688;SDS011;61053;52.166;4.506;2023-11-19T02:07:06;25.77;;;4.70;;
72688;SDS011;61053;52.166;4.506;2023-11-19T02:09:32;16.45;;;4.18;;
72688;SDS011;61053;52.166;4.506;2023-11-19T02:12:15;24.25;;;4.63;;
72688;SDS011;61053;52.166;4.506;2023-11-19T02:14:41;18.13;;;3.53;;
72688;SDS011;61053;52.166;4.506;2023-11-19T02:17:06;10.90;;;3.28;;
72688;SDS011;61053;52.166;4.506;2023-11-19T02:19:35;25.23;;;5.15;;
72688;SDS011;61053;52.166;4.506;2023-11-19T02:22:02;25.90;;;4.85;;
72688;SDS011;61053;52.166;4.506;2023-11-19T02:24:37;21.35;;;5.22;;
72688;SDS011;61053;52.166;4.506;2023-11-19T02:27:07;21.65;;;4.22;;
72688;SDS011;61053;52.166;4.506;2023-11-19T02:29:54;25.73;;;4.72;;
72688;SDS011;61053;52.166;4.506;2023-11-19T02:32:20;25.88;;;5.05;;
72688;SDS011;61053;52.166;4.506;2023-11-19T02:34:45;21.90;;;4.13;;
72688;SDS011;61053;52.166;4.506;2023-11-19T02:37:11;24.02;;;4.22;;
72688;SDS011;61053;52.166;4.506;2023-11-19T02:40:08;25.05;;;4.35;;
72688;SDS011;61053;52.166;4.506;2023-11-19T02:42:34;18.33;;;4.50;;
72688;SDS011;61053;52.166;4.506;2023-11-19T02:45:09;27.02;;;4.57;;
72688;SDS011;61053;52.166;4.506;2023-11-19T02:47:39;21.08;;;4.82;;
72688;SDS011;61053;52.166;4.506;2023-11-19T02:50:07;20.90;;;4.65;;
72688;SDS011;61053;52.166;4.506;2023-11-19T02:52:45;23.27;;;4.93;;
72688;SDS011;61053;52.166;4.506;2023-11-19T02:55:11;23.27;;;4.30;;
72688;SDS011;61053;52.166;4.506;2023-11-19T02:57:49;20.85;;;3.67;;
72688;SDS011;61053;52.166;4.506;2023-11-19T03:00:29;11.88;;;3.70;;
72688;SDS011;61053;52.166;4.506;2023-11-19T03:03:10;23.02;;;4.60;;
72688;SDS011;61053;52.166;4.506;2023-11-19T03:05:45;37.38;;;5.25;;
72688;SDS011;61053;52.166;4.506;2023-11-19T03:08:11;24.15;;;4.57;;
72688;SDS011;61053;52.166;4.506;2023-11-19T03:10:43;18.95;;;4.00;;
72688;SDS011;61053;52.166;4.506;2023-11-19T03:13:12;28.90;;;5.30;;
72688;SDS011;61053;52.166;4.506;2023-11-19T03:15:48;18.17;;;4.15;;
72688;SDS011;61053;52.166;4.506;2023-11-19T03:18:14;16.20;;;4.75;;
72688;SDS011;61053;52.166;4.506;2023-11-19T03:20:42;27.50;;;4.70;;
72688;SDS011;61053;52.166;4.506;2023-11-19T03:23:17;21.27;;;4.15;;
72688;SDS011;61053;52.166;4.506;2023-11-19T03:25:42;20.40;;;4.28;;
72688;SDS011;61053;52.166;4.506;2023-11-19T03:28:08;30.35;;;4.68;;
72688;SDS011;61053;52.166;4.506;2023-11-19T03:30:42;23.15;;;4.93;;
72688;SDS011;61053;52.166;4.506;2023-11-19T03:33:08;21.20;;;4.10;;
72688;SDS011;61053;52.166;4.506;2023-11-19T03:35:33;23.48;;;4.28;;
72688;SDS011;61053;52.166;4.506;2023-11-19T03:38:17;25.27;;;4.60;;
72688;SDS011;61053;52.166;4.506;2023-11-19T03:40:51;18.90;;;4.13;;
72688;SDS011;61053;52.166;4.506;2023-11-19T03:43:32;20.98;;;4.35;;
72688;SDS011;61053;52.166;4.506;2023-11-19T03:45:58;26.38;;;5.13;;
72688;SDS011;61053;52.166;4.506;2023-11-19T03:48:23;19.35;;;4.28;;
72688;SDS011;61053;52.166;4.506;2023-11-19T03:50:49;33.65;;;5.45;;
72688;SDS011;61053;52.166;4.506;2023-11-19T03:53:14;27.48;;;5.03;;
72688;SDS011;61053;52.166;4.506;2023-11-19T03:55:39;23.75;;;4.45;;
72688;SDS011;61053;52.166;4.506;2023-11-19T03:58:05;19.17;;;3.70;;
72688;SDS011;61053;52.166;4.506;2023-11-19T04:00:42;25.90;;;4.90;;
72688;SDS011;61053;52.166;4.506;2023-11-19T04:03:16;22.23;;;5.30;;
72688;SDS011;61053;52.166;4.506;2023-11-19T04:05:54;23.00;;;4.05;;
72688;SDS011;61053;52.166;4.506;2023-11-19T04:08:25;20.73;;;3.72;;
72688;SDS011;61053;52.166;4.506;2023-11-19T04:10:54;23.17;;;4.35;;
72688;SDS011;61053;52.166;4.506;2023-11-19T04:13:19;19.98;;;4.55;;
72688;SDS011;61053;52.166;4.506;2023-11-19T04:15:54;23.33;;;3.70;;
72688;SDS011;61053;52.166;4.506;2023-11-19T04:18:31;17.77;;;3.95;;
72688;SDS011;61053;52.166;4.506;2023-11-19T04:20:57;20.33;;;4.43;;
72688;SDS011;61053;52.166;4.506;2023-11-19T04:23:25;21.80;;;4.05;;
72688;SDS011;61053;52.166;4.506;2023-11-19T04:26:08;18.45;;;3.97;;
72688;SDS011;61053;52.166;4.506;2023-11-19T04:28:37;13.27;;;3.75;;
72688;SDS011;61053;52.166;4.506;2023-11-19T04:31:15;17.73;;;4.57;;
72688;SDS011;61053;52.166;4.506;2023-11-19T04:33:43;18.05;;;3.97;;
72688;SDS011;61053;52.166;4.506;2023-11-19T04:36:21;17.63;;;3.17;;
72688;SDS011;61053;52.166;4.506;2023-11-19T04:39:01;18.33;;;3.60;;
72688;SDS011;61053;52.166;4.506;2023-11-19T04:41:49;25.10;;;4.30;;
72688;SDS011;61053;52.166;4.506;2023-11-19T04:44:15;21.25;;;4.20;;
72688;SDS011;61053;52.166;4.506;2023-11-19T04:46:49;19.98;;;3.70;;
72688;SDS011;61053;52.166;4.506;2023-11-19T04:49:21;21.33;;;3.22;;
72688;SDS011;61053;52.166;4.506;2023-11-19T04:51:46;22.45;;;4.57;;
72688;SDS011;61053;52.166;4.506;2023-11-19T04:54:24;25.83;;;3.83;;
72688;SDS011;61053;52.166;4.506;2023-11-19T04:57:05;13.90;;;3.88;;
72688;SDS011;61053;52.166;4.506;2023-11-19T04:59:39;19.83;;;3.45;;
72688;SDS011;61053;52.166;4.506;2023-11-19T05:02:15;22.52;;;4.22;;
72688;SDS011;61053;52.166;4.506;2023-11-19T05:04:44;21.52;;;4.70;;
72688;SDS011;61053;52.166;4.506;2023-11-19T05:07:10;16.55;;;2.80;;
72688;SDS011;61053;52.166;4.506;2023-11-19T05:09:36;16.20;;;3.17;;
72688;SDS011;61053;52.166;4.506;2023-11-19T05:12:01;22.77;;;4.50;;
72688;SDS011;61053;52.166;4.506;2023-11-19T05:14:27;17.67;;;3.83;;
72688;SDS011;61053;52.166;4.506;2023-11-19T05:17:05;19.83;;;3.58;;
72688;SDS011;61053;52.166;4.506;2023-11-19T05:19:30;23.75;;;3.33;;
72688;SDS011;61053;52.166;4.506;2023-11-19T05:21:56;24.30;;;4.28;;
72688;SDS011;61053;52.166;4.506;2023-11-19T05:24:28;25.23;;;3.70;;
72688;SDS011;61053;52.166;4.506;2023-11-19T05:26:54;12.95;;;3.05;;
72688;SDS011;61053;52.166;4.506;2023-11-19T05:29:20;21.10;;;4.68;;
72688;SDS011;61053;52.166;4.506;2023-11-19T05:31:51;18.23;;;4.05;;
72688;SDS011;61053;52.166;4.506;2023-11-19T05:34:16;17.65;;;4.40;;
72688;SDS011;61053;52.166;4.506;2023-11-19T05:36:45;18.73;;;4.25;;
72688;SDS011;61053;52.166;4.506;2023-11-19T05:39:17;23.70;;;4.82;;
72688;SDS011;61053;52.166;4.506;2023-11-19T05:41:43;20.88;;;4.43;;
72688;SDS011;61053;52.166;4.506;2023-11-19T05:44:15;13.55;;;3.50;;
72688;SDS011;61053;52.166;4.506;2023-11-19T05:46:41;18.75;;;3.72;;
72688;SDS011;61053;52.166;4.506;2023-11-19T05:49:17;18.77;;;4.00;;
72688;SDS011;61053;52.166;4.506;2023-11-19T05:51:48;21.00;;;4.20;;
72688;SDS011;61053;52.166;4.506;2023-11-19T05:54:13;16.35;;;3.40;;
72688;SDS011;61053;52.166;4.506;2023-11-19T05:56:39;21.13;;;4.72;;
72688;SDS011;61053;52.166;4.506;2023-11-19T05:59:11;20.63;;;3.97;;
72688;SDS011;61053;52.166;4.506;2023-11-19T06:01:40;20.30;;;4.45;;
72688;SDS011;61053;52.166;4.506;2023-11-19T06:04:12;13.40;;;3.47;;
72688;SDS011;61053;52.166;4.506;2023-11-19T06:06:38;19.27;;;3.43;;
72688;SDS011;61053;52.166;4.506;2023-11-19T06:09:16;32.05;;;4.05;;
72688;SDS011;61053;52.166;4.506;2023-11-19T06:11:43;22.98;;;3.50;;
72688;SDS011;61053;52.166;4.506;2023-11-19T06:14:12;18.10;;;3.40;;
72688;SDS011;61053;52.166;4.506;2023-11-19T06:16:37;17.42;;;4.50;;
72688;SDS011;61053;52.166;4.506;2023-11-19T06:19:04;13.82;;;3.92;;
72688;SDS011;61053;52.166;4.506;2023-11-19T06:21:45;16.58;;;3.78;;
72688;SDS011;61053;52.166;4.506;2023-11-19T06:24:11;17.23;;;3.42;;
72688;SDS011;61053;52.166;4.506;2023-11-19T06:26:36;14.15;;;3.90;;
72688;SDS011;61053;52.166;4.506;2023-11-19T06:29:17;23.95;;;4.03;;
72688;SDS011;61053;52.166;4.506;2023-11-19T06:34:10;13.07;;;2.85;;
72688;SDS011;61053;52.166;4.506;2023-11-19T06:36:41;22.80;;;4.13;;
72688;SDS011;61053;52.166;4.506;2023-11-19T06:39:10;22.27;;;4.10;;
72688;SDS011;61053;52.166;4.506;2023-11-19T06:41:51;22.55;;;4.82;;
72688;SDS011;61053;52.166;4.506;2023-11-19T06:44:17;18.55;;;4.10;;
72688;SDS011;61053;52.166;4.506;2023-11-19T06:46:54;22.27;;;3.78;;
72688;SDS011;61053;52.166;4.506;2023-11-19T06:49:20;17.83;;;4.00;;
72688;SDS011;61053;52.166;4.506;2023-11-19T06:51:51;15.60;;;3.72;;
72688;SDS011;61053;52.166;4.506;2023-11-19T06:54:17;17.20;;;3.53;;
72688;SDS011;61053;52.166;4.506;2023-11-19T06:56:42;19.05;;;4.05;;
72688;SDS011;61053;52.166;4.506;2023-11-19T06:59:14;19.58;;;3.58;;
72688;SDS011;61053;52.166;4.506;2023-11-19T07:01:39;21.25;;;4.28;;
72688;SDS011;61053;52.166;4.506;2023-11-19T07:04:24;20.55;;;4.22;;
72688;SDS011;61053;52.166;4.506;2023-11-19T07:06:52;18.20;;;4.18;;
72688;SDS011;61053;52.166;4.506;2023-11-19T07:09:18;20.67;;;4.30;;
72688;SDS011;61053;52.166;4.506;2023-11-19T07:11:52;23.80;;;4.47;;
72688;SDS011;61053;52.166;4.506;2023-11-19T07:14:24;21.25;;;3.97;;
72688;SDS011;61053;52.166;4.506;2023-11-19T07:17:14;20.42;;;3.83;;
72688;SDS011;61053;52.166;4.506;2023-11-19T07:19:40;21.98;;;3.65;;
72688;SDS011;61053;52.166;4.506;2023-11-19T07:22:26;20.65;;;3.65;;
72688;SDS011;61053;52.166;4.506;2023-11-19T07:24:55;16.67;;;3.40;;
72688;SDS011;61053;52.166;4.506;2023-11-19T07:27:26;17.67;;;3.83;;
72688;SDS011;61053;52.166;4.506;2023-11-19T07:29:55;20.02;;;3.65;;
72688;SDS011;61053;52.166;4.506;2023-11-19T07:32:27;26.23;;;4.15;;
72688;SDS011;61053;52.166;4.506;2023-11-19T07:34:58;12.52;;;3.33;;
72688;SDS011;61053;52.166;4.506;2023-11-19T07:37:27;19.25;;;3.10;;
72688;SDS011;61053;52.166;4.506;2023-11-19T07:39:52;21.13;;;3.70;;
72688;SDS011;61053;52.166;4.506;2023-11-19T07:42:20;14.55;;;3.20;;
72688;SDS011;61053;52.166;4.506;2023-11-19T07:44:49;12.85;;;3.78;;
72688;SDS011;61053;52.166;4.506;2023-11-19T07:47:32;25.52;;;4.43;;
72688;SDS011;61053;52.166;4.506;2023-11-19T07:49:59;19.08;;;3.10;;
72688;SDS011;61053;52.166;4.506;2023-11-19T07:54:58;22.67;;;3.45;;
72688;SDS011;61053;52.166;4.506;2023-11-19T07:57:24;17.38;;;4.22;;
72688;SDS011;61053;52.166;4.506;2023-11-19T08:02:30;14.27;;;3.53;;
72688;SDS011;61053;52.166;4.506;2023-11-19T08:04:55;16.65;;;3.72;;
72688;SDS011;61053;52.166;4.506;2023-11-19T08:07:23;15.82;;;3.17;;
72688;SDS011;61053;52.166;4.506;2023-11-19T08:12:56;19.30;;;3.72;;
72688;SDS011;61053;52.166;4.506;2023-11-19T08:15:30;24.70;;;4.47;;
72688;SDS011;61053;52.166;4.506;2023-11-19T08:21:50;17.80;;;4.50;;
72688;SDS011;61053;52.166;4.506;2023-11-19T08:24:15;23.73;;;4.05;;
72688;SDS011;61053;52.166;4.506;2023-11-19T08:26:40;24.80;;;3.80;;
72688;SDS011;61053;52.166;4.506;2023-11-19T08:29:06;15.98;;;3.20;;
72688;SDS011;61053;52.166;4.506;2023-11-19T08:31:39;16.83;;;3.17;;
72688;SDS011;61053;52.166;4.506;2023-11-19T08:34:11;23.45;;;4.03;;
72688;SDS011;61053;52.166;4.506;2023-11-19T08:36:43;13.52;;;3.25;;
72688;SDS011;61053;52.166;4.506;2023-11-19T08:39:14;15.38;;;3.70;;
72688;SDS011;61053;52.166;4.506;2023-11-19T08:42:02;19.15;;;3.65;;
72688;SDS011;61053;52.166;4.506;2023-11-19T08:44:43;13.52;;;3.28;;
72688;SDS011;61053;52.166;4.506;2023-11-19T08:49:44;26.00;;;4.20;;
72688;SDS011;61053;52.166;4.506;2023-11-19T08:55:00;23.85;;;4.07;;
72688;SDS011;61053;52.166;4.506;2023-11-19T08:57:40;17.77;;;3.83;;
72688;SDS011;61053;52.166;4.506;2023-11-19T09:05:16;19.65;;;3.85;;
72688;SDS011;61053;52.166;4.506;2023-11-19T09:10:44;20.88;;;4.50;;
72688;SDS011;61053;52.166;4.506;2023-11-19T09:29:11;15.10;;;3.80;;
72688;SDS011;61053;52.166;4.506;2023-11-19T09:43:33;22.55;;;3.03;;
72688;SDS011;61053;52.166;4.506;2023-11-19T10:27:17;20.90;;;3.70;;
72688;SDS011;61053;52.166;4.506;2023-11-19T10:29:46;17.98;;;3.53;;
72688;SDS011;61053;52.166;4.506;2023-11-19T11:19:59;11.05;;;3.15;;
72688;SDS011;61053;52.166;4.506;2023-11-19T11:25:08;14.68;;;3.78;;
72688;SDS011;61053;52.166;4.506;2023-11-19T11:45:57;9.65;;;2.78;;
72688;SDS011;61053;52.166;4.506;2023-11-19T11:48:28;11.52;;;2.15;;
72688;SDS011;61053;52.166;4.506;2023-11-19T11:50:59;12.68;;;3.05;;
72688;SDS011;61053;52.166;4.506;2023-11-19T13:40:50;20.90;;;3.47;;
72688;SDS011;61053;52.166;4.506;2023-11-19T13:46:00;12.43;;;2.95;;
72688;SDS011;61053;52.166;4.506;2023-11-19T13:51:41;18.88;;;3.67;;
72688;SDS011;61053;52.166;4.506;2023-11-19T14:01:52;11.93;;;2.97;;
72688;SDS011;61053;52.166;4.506;2023-11-19T14:04:24;26.40;;;3.42;;
72688;SDS011;61053;52.166;4.506;2023-11-19T14:06:56;17.08;;;4.13;;
72688;SDS011;61053;52.166;4.506;2023-11-19T14:09:24;18.85;;;3.67;;
72688;SDS011;61053;52.166;4.506;2023-11-19T14:17:07;24.48;;;4.18;;
72688;SDS011;61053;52.166;4.506;2023-11-19T15:19:07;11.70;;;3.72;;
72688;SDS011;61053;52.166;4.506;2023-11-19T15:36:11;27.83;;;5.03;;
72688;SDS011;61053;52.166;4.506;2023-11-19T15:38:44;23.13;;;4.03;;
72688;SDS011;61053;52.166;4.506;2023-11-19T15:52:18;17.83;;;3.50;;
72688;SDS011;61053;52.166;4.506;2023-11-19T17:41:22;16.13;;;4.28;;
72688;SDS011;61053;52.166;4.506;2023-11-19T17:55:18;19.60;;;4.47;;
72688;SDS011;61053;52.166;4.506;2023-11-19T17:58:30;23.30;;;4.47;;
72688;SDS011;61053;52.166;4.506;2023-11-19T18:03:57;19.25;;;3.70;;
72688;SDS011;61053;52.166;4.506;2023-11-19T22:42:29;10.38;;;2.08;;
72688;SDS011;61053;52.166;4.506;2023-11-19T22:45:02;7.65;;;2.30;;
72688;SDS011;61053;52.166;4.506;2023-11-19T22:47:40;8.50;;;2.77;;
72688;SDS011;61053;52.166;4.506;2023-11-19T22:50:39;4.82;;;1.77;;
72688;SDS011;61053;52.166;4.506;2023-11-19T22:53:22;10.00;;;2.63;;
72688;SDS011;61053;52.166;4.506;2023-11-19T22:55:56;8.02;;;2.25;;
72688;SDS011;61053;52.166;4.506;2023-11-19T23:01:38;14.40;;;1.80;;
72688;SDS011;61053;52.166;4.506;2023-11-19T23:04:05;7.70;;;2.08;;
72688;SDS011;61053;52.166;4.506;2023-11-19T23:07:01;11.00;;;2.03;;
72688;SDS011;61053;52.166;4.506;2023-11-19T23:09:42;14.82;;;2.50;;
72688;SDS011;61053;52.166;4.506;2023-11-19T23:12:21;7.10;;;1.60;;
72688;SDS011;61053;52.166;4.506;2023-11-19T23:15:25;5.05;;;1.65;;
72688;SDS011;61053;52.166;4.506;2023-11-19T23:17:54;10.05;;;2.15;;
72688;SDS011;61053;52.166;4.506;2023-11-19T23:20:32;5.63;;;1.73;;
72688;SDS011;61053;52.166;4.506;2023-11-19T23:23:35;8.13;;;2.17;;
72688;SDS011;61053;52.166;4.506;2023-11-19T23:26:21;11.43;;;2.00;;
72688;SDS011;61053;52.166;4.506;2023-11-19T23:32:44;15.10;;;2.78;;
72688;SDS011;61053;52.166;4.506;2023-11-19T23:35:09;8.35;;;2.17;;
72688;SDS011;61053;52.166;4.506;2023-11-19T23:37:52;12.80;;;2.53;;
72688;SDS011;61053;52.166;4.506;2023-11-19T23:40:37;16.00;;;2.45;;
72688;SDS011;61053;52.166;4.506;2023-11-19T23:43:03;6.22;;;2.08;;
72688;SDS011;61053;52.166;4.506;2023-11-19T23:45:29;13.73;;;2.42;;
72688;SDS011;61053;52.166;4.506;2023-11-19T23:47:58;5.30;;;2.08;;
72688;SDS011;61053;52.166;4.506;2023-11-19T23:50:30;9.43;;;1.80;;
72688;SDS011;61053;52.166;4.506;2023-11-19T23:52:59;8.68;;;2.08;;
72688;SDS011;61053;52.166;4.506;2023-11-19T23:55:35;5.43;;;2.10;;
72688;SDS011;61053;52.166;4.506;2023-11-19T23:58:05;7.13;;;2.33;;
